PAFA/FAI METAR and TAF weather

Enter ICAO airport designator
Station Type Date Time Source
PAFA METAR 2021/05/14 06:53 UTC NOAA

PAFA 140653Z 24003KT 10SM SCT075 SCT095 BKN200 13/02 A2994 RMK AO2 SLP144 VIRGA T01280017


Station Type Date Time Source
PAFA Decoded METAR 2021/05/14 06:53 UTC NOAA

Fairbanks, Fairbanks International Airport, AK, United States (PAFA) 64-48-14N 147-52-34W 140M
May 14, 2021 - 02:53 AM EDT / 2021.05.14 0653 UTC
Wind: from the WSW (240 degrees) at 3 MPH (3 KT):0
Visibility: 10 mile(s):0
Sky conditions: mostly cloudy
Temperature: 55.0 F (12.8 C)
Dew Point: 35.1 F (1.7 C)
Relative Humidity: 46%
Pressure (altimeter): 29.94 in. Hg (1013 hPa)
ob: PAFA 140653Z 24003KT 10SM SCT075 SCT095 BKN200 13/02 A2994 RMK AO2 SLP144 VIRGA T01280017
cycle: 7

Station Type Date Time Source
PAFA TAF 2021/05/14 06:54 UTC NOAA

TAF TAF PAFA 140529Z 1406/1512 02005KT P6SM BKN100 BKN180
FM140900 05004KT P6SM SCT080
FM150000 04003KT P6SM BKN100

Example: see airport list